sensor_id;sensor_type;location;lat;lon;timestamp;pressure;altitude;pressure_sealevel;temperature;humidity
36254;BME280;22291;52.250;21.228;2023-03-13T00:01:18;99778.11;;;-0.26;72.79
36254;BME280;22291;52.250;21.228;2023-03-13T00:03:49;99779.98;;;-0.24;72.79
36254;BME280;22291;52.250;21.228;2023-03-13T00:06:16;99772.30;;;-0.23;72.91
36254;BME280;22291;52.250;21.228;2023-03-13T00:08:43;99769.94;;;-0.22;72.88
36254;BME280;22291;52.250;21.228;2023-03-13T00:11:11;99764.87;;;-0.21;73.00
36254;BME280;22291;52.250;21.228;2023-03-13T00:13:40;99763.59;;;-0.18;72.96
36254;BME280;22291;52.250;21.228;2023-03-13T00:16:13;99767.04;;;-0.18;73.06
36254;BME280;22291;52.250;21.228;2023-03-13T00:18:45;99766.25;;;-0.18;72.86
36254;BME280;22291;52.250;21.228;2023-03-13T00:21:14;99759.35;;;-0.17;73.01
36254;BME280;22291;52.250;21.228;2023-03-13T00:23:42;99765.72;;;-0.15;72.89
36254;BME280;22291;52.250;21.228;2023-03-13T00:26:11;99755.92;;;-0.12;72.95
36254;BME280;22291;52.250;21.228;2023-03-13T00:28:40;99758.33;;;-0.11;72.87
36254;BME280;22291;52.250;21.228;2023-03-13T00:31:10;99759.70;;;-0.08;72.89
36254;BME280;22291;52.250;21.228;2023-03-13T00:33:44;99756.26;;;-0.06;72.87
36254;BME280;22291;52.250;21.228;2023-03-13T00:36:15;99758.67;;;-0.05;72.81
36254;BME280;22291;52.250;21.228;2023-03-13T00:38:44;99754.43;;;-0.03;72.88
36254;BME280;22291;52.250;21.228;2023-03-13T00:41:13;99750.98;;;-0.01;72.87
36254;BME280;22291;52.250;21.228;2023-03-13T00:43:43;99761.12;;;0.02;72.96
36254;BME280;22291;52.250;21.228;2023-03-13T00:46:11;99760.05;;;0.03;72.89
36254;BME280;22291;52.250;21.228;2023-03-13T00:48:40;99766.98;;;0.04;72.81
36254;BME280;22291;52.250;21.228;2023-03-13T00:51:07;99765.67;;;0.07;72.78
36254;BME280;22291;52.250;21.228;2023-03-13T00:53:34;99763.30;;;0.08;72.84
36254;BME280;22291;52.250;21.228;2023-03-13T00:56:06;99764.66;;;0.10;72.83
36254;BME280;22291;52.250;21.228;2023-03-13T00:58:37;99762.02;;;0.13;72.81
36254;BME280;22291;52.250;21.228;2023-03-13T01:01:08;99763.63;;;0.14;72.77
36254;BME280;22291;52.250;21.228;2023-03-13T01:03:37;99760.19;;;0.16;72.79
36254;BME280;22291;52.250;21.228;2023-03-13T01:06:08;99766.04;;;0.15;72.75
36254;BME280;22291;52.250;21.228;2023-03-13T01:08:36;99762.30;;;0.16;72.63
36254;BME280;22291;52.250;21.228;2023-03-13T01:11:08;99760.48;;;0.20;72.64
36254;BME280;22291;52.250;21.228;2023-03-13T01:13:37;99748.51;;;0.20;72.74
36254;BME280;22291;52.250;21.228;2023-03-13T01:16:07;99751.95;;;0.20;72.74
36254;BME280;22291;52.250;21.228;2023-03-13T01:18:38;99747.46;;;0.21;72.80
36254;BME280;22291;52.250;21.228;2023-03-13T01:21:06;99735.49;;;0.21;72.85
36254;BME280;22291;52.250;21.228;2023-03-13T01:23:33;99730.97;;;0.24;72.82
36254;BME280;22291;52.250;21.228;2023-03-13T01:26:02;99728.31;;;0.24;72.79
36254;BME280;22291;52.250;21.228;2023-03-13T01:28:33;99729.39;;;0.25;72.86
36254;BME280;22291;52.250;21.228;2023-03-13T01:31:00;99722.74;;;0.25;72.93
36254;BME280;22291;52.250;21.228;2023-03-13T01:33:36;99714.76;;;0.25;72.94
36254;BME280;22291;52.250;21.228;2023-03-13T01:36:05;99712.64;;;0.25;72.95
36254;BME280;22291;52.250;21.228;2023-03-13T01:38:32;99709.72;;;0.26;73.19
36254;BME280;22291;52.250;21.228;2023-03-13T01:40:58;99709.72;;;0.26;73.19
36254;BME280;22291;52.250;21.228;2023-03-13T01:43:29;99709.73;;;0.29;73.03
36254;BME280;22291;52.250;21.228;2023-03-13T01:46:21;99707.64;;;0.31;73.11
36254;BME280;22291;52.250;21.228;2023-03-13T01:51:43;99682.66;;;0.34;73.11
36254;BME280;22291;52.250;21.228;2023-03-13T01:54:19;99680.78;;;0.35;73.23
36254;BME280;22291;52.250;21.228;2023-03-13T01:59:43;99675.46;;;0.35;73.19
36254;BME280;22291;52.250;21.228;2023-03-13T02:02:12;99672.52;;;0.34;73.26
36254;BME280;22291;52.250;21.228;2023-03-13T02:04:44;99671.19;;;0.34;73.27
36254;BME280;22291;52.250;21.228;2023-03-13T02:07:14;99666.15;;;0.32;73.37
36254;BME280;22291;52.250;21.228;2023-03-13T02:09:44;99664.03;;;0.34;73.51
36254;BME280;22291;52.250;21.228;2023-03-13T02:12:17;99662.95;;;0.33;73.35
36254;BME280;22291;52.250;21.228;2023-03-13T02:14:48;99669.32;;;0.32;73.40
36254;BME280;22291;52.250;21.228;2023-03-13T02:17:15;99678.38;;;0.33;73.58
36254;BME280;22291;52.250;21.228;2023-03-13T02:19:44;99677.05;;;0.33;73.62
36254;BME280;22291;52.250;21.228;2023-03-13T02:27:44;99670.14;;;0.35;73.75
36254;BME280;22291;52.250;21.228;2023-03-13T02:30:14;99667.23;;;0.36;73.88
36254;BME280;22291;52.250;21.228;2023-03-13T02:32:42;99678.70;;;0.40;73.88
36254;BME280;22291;52.250;21.228;2023-03-13T02:35:14;99666.72;;;0.42;74.09
36254;BME280;22291;52.250;21.228;2023-03-13T02:37:49;99659.28;;;0.44;74.03
36254;BME280;22291;52.250;21.228;2023-03-13T02:40:18;99653.19;;;0.46;74.01
36254;BME280;22291;52.250;21.228;2023-03-13T02:42:47;99652.40;;;0.51;74.17
36254;BME280;22291;52.250;21.228;2023-03-13T02:45:16;99658.55;;;0.54;74.12
36254;BME280;22291;52.250;21.228;2023-03-13T02:47:43;99663.36;;;0.57;74.16
36254;BME280;22291;52.250;21.228;2023-03-13T02:50:11;99665.23;;;0.59;74.34
36254;BME280;22291;52.250;21.228;2023-03-13T02:52:44;99659.39;;;0.62;74.58
36254;BME280;22291;52.250;21.228;2023-03-13T02:55:23;99655.94;;;0.64;74.46
36254;BME280;22291;52.250;21.228;2023-03-13T02:57:48;99662.08;;;0.67;74.71
36254;BME280;22291;52.250;21.228;2023-03-13T03:00:16;99665.81;;;0.69;74.60
36254;BME280;22291;52.250;21.228;2023-03-13T03:02:44;99664.48;;;0.69;74.50
36254;BME280;22291;52.250;21.228;2023-03-13T03:05:13;99669.55;;;0.73;74.68
36254;BME280;22291;52.250;21.228;2023-03-13T03:07:39;99659.44;;;0.72;74.62
36254;BME280;22291;52.250;21.228;2023-03-13T03:10:07;99667.17;;;0.74;74.62
36254;BME280;22291;52.250;21.228;2023-03-13T03:12:33;99666.63;;;0.74;74.68
36254;BME280;22291;52.250;21.228;2023-03-13T03:15:00;99666.13;;;0.75;74.53
36254;BME280;22291;52.250;21.228;2023-03-13T03:17:29;99662.38;;;0.76;74.70
36254;BME280;22291;52.250;21.228;2023-03-13T03:19:56;99663.17;;;0.77;74.75
36254;BME280;22291;52.250;21.228;2023-03-13T03:22:22;99663.46;;;0.78;74.74
36254;BME280;22291;52.250;21.228;2023-03-13T03:24:48;99661.34;;;0.77;74.83
36254;BME280;22291;52.250;21.228;2023-03-13T03:27:15;99658.42;;;0.79;74.81
36254;BME280;22291;52.250;21.228;2023-03-13T03:29:41;99651.77;;;0.79;74.81
36254;BME280;22291;52.250;21.228;2023-03-13T03:32:07;99658.67;;;0.80;74.94
36254;BME280;22291;52.250;21.228;2023-03-13T03:34:33;99654.96;;;0.81;74.95
36254;BME280;22291;52.250;21.228;2023-03-13T03:36:59;99651.76;;;0.81;75.06
36254;BME280;22291;52.250;21.228;2023-03-13T03:39:26;99649.09;;;0.81;75.14
36254;BME280;22291;52.250;21.228;2023-03-13T03:41:52;99652.55;;;0.82;75.42
36254;BME280;22291;52.250;21.228;2023-03-13T03:44:18;99651.25;;;0.84;75.62
36254;BME280;22291;52.250;21.228;2023-03-13T03:46:44;99645.92;;;0.84;75.52
36254;BME280;22291;52.250;21.228;2023-03-13T03:49:11;99655.24;;;0.84;75.75
36254;BME280;22291;52.250;21.228;2023-03-13T03:51:37;99653.12;;;0.84;75.87
36254;BME280;22291;52.250;21.228;2023-03-13T03:54:03;99653.37;;;0.85;76.05
36254;BME280;22291;52.250;21.228;2023-03-13T03:56:30;99655.24;;;0.84;76.04
36254;BME280;22291;52.250;21.228;2023-03-13T03:58:56;99649.38;;;0.85;76.08
36254;BME280;22291;52.250;21.228;2023-03-13T04:01:22;99652.86;;;0.85;76.23
36254;BME280;22291;52.250;21.228;2023-03-13T04:03:48;99645.66;;;0.86;76.34
36254;BME280;22291;52.250;21.228;2023-03-13T04:06:14;99639.00;;;0.86;76.62
36254;BME280;22291;52.250;21.228;2023-03-13T04:08:41;99622.75;;;0.85;76.68
36254;BME280;22291;52.250;21.228;2023-03-13T04:11:07;99620.37;;;0.86;76.50
36254;BME280;22291;52.250;21.228;2023-03-13T04:13:33;99617.45;;;0.87;76.94
36254;BME280;22291;52.250;21.228;2023-03-13T04:16:04;99609.98;;;0.89;76.69
36254;BME280;22291;52.250;21.228;2023-03-13T04:18:34;99617.98;;;0.89;77.39
36254;BME280;22291;52.250;21.228;2023-03-13T04:21:02;99614.52;;;0.91;76.90
36254;BME280;22291;52.250;21.228;2023-03-13T04:23:30;99606.80;;;0.95;77.05
36254;BME280;22291;52.250;21.228;2023-03-13T04:25:56;99609.20;;;0.97;77.07
36254;BME280;22291;52.250;21.228;2023-03-13T04:28:22;99609.74;;;0.99;76.89
36254;BME280;22291;52.250;21.228;2023-03-13T04:30:48;99610.56;;;0.99;76.93
36254;BME280;22291;52.250;21.228;2023-03-13T04:33:15;99605.77;;;1.01;77.30
36254;BME280;22291;52.250;21.228;2023-03-13T04:35:41;99599.66;;;1.01;77.02
36254;BME280;22291;52.250;21.228;2023-03-13T04:38:07;99600.19;;;1.03;77.06
36254;BME280;22291;52.250;21.228;2023-03-13T04:40:33;99594.33;;;1.01;77.59
36254;BME280;22291;52.250;21.228;2023-03-13T04:42:59;99595.91;;;1.02;77.42
36254;BME280;22291;52.250;21.228;2023-03-13T04:45:26;99597.50;;;1.00;77.85
36254;BME280;22291;52.250;21.228;2023-03-13T04:47:52;99597.76;;;0.99;78.23
36254;BME280;22291;52.250;21.228;2023-03-13T04:50:18;99587.91;;;0.97;78.23
36254;BME280;22291;52.250;21.228;2023-03-13T04:52:44;99590.31;;;0.96;78.26
36254;BME280;22291;52.250;21.228;2023-03-13T04:55:11;99588.16;;;0.95;78.37
36254;BME280;22291;52.250;21.228;2023-03-13T04:57:37;99593.48;;;0.95;78.41
36254;BME280;22291;52.250;21.228;2023-03-13T05:00:05;99587.91;;;0.94;78.44
36254;BME280;22291;52.250;21.228;2023-03-13T05:02:32;99586.83;;;0.95;78.83
36254;BME280;22291;52.250;21.228;2023-03-13T05:04:59;99589.23;;;0.97;78.84
36254;BME280;22291;52.250;21.228;2023-03-13T05:07:25;99586.83;;;0.95;79.05
36254;BME280;22291;52.250;21.228;2023-03-13T05:09:51;99587.11;;;0.96;79.26
36254;BME280;22291;52.250;21.228;2023-03-13T05:12:18;99573.26;;;0.97;79.68
36254;BME280;22291;52.250;21.228;2023-03-13T05:14:44;99571.67;;;0.98;79.59
36254;BME280;22291;52.250;21.228;2023-03-13T05:17:11;99573.28;;;0.99;80.17
36254;BME280;22291;52.250;21.228;2023-03-13T05:19:37;99578.06;;;1.00;80.26
36254;BME280;22291;52.250;21.228;2023-03-13T05:22:04;99559.70;;;1.01;80.89
36254;BME280;22291;52.250;21.228;2023-03-13T05:24:30;99572.22;;;1.03;81.10
36254;BME280;22291;52.250;21.228;2023-03-13T05:26:56;99564.23;;;1.03;80.97
36254;BME280;22291;52.250;21.228;2023-03-13T05:29:22;99571.42;;;1.05;81.36
36254;BME280;22291;52.250;21.228;2023-03-13T05:31:48;99572.20;;;1.05;81.35
36254;BME280;22291;52.250;21.228;2023-03-13T05:34:15;99572.23;;;1.08;81.94
36254;BME280;22291;52.250;21.228;2023-03-13T05:36:42;99560.49;;;1.09;81.63
36254;BME280;22291;52.250;21.228;2023-03-13T05:39:09;99558.11;;;1.10;81.73
36254;BME280;22291;52.250;21.228;2023-03-13T05:41:35;99553.58;;;1.10;81.94
36254;BME280;22291;52.250;21.228;2023-03-13T05:44:02;99559.97;;;1.12;82.42
36254;BME280;22291;52.250;21.228;2023-03-13T05:46:28;99574.10;;;1.15;81.99
36254;BME280;22291;52.250;21.228;2023-03-13T05:48:56;99563.45;;;1.15;82.48
36254;BME280;22291;52.250;21.228;2023-03-13T05:51:22;99572.53;;;1.19;82.83
36254;BME280;22291;52.250;21.228;2023-03-13T05:53:48;99558.91;;;1.21;82.61
36254;BME280;22291;52.250;21.228;2023-03-13T05:56:14;99574.37;;;1.24;83.27
36254;BME280;22291;52.250;21.228;2023-03-13T05:58:40;99573.59;;;1.28;83.47
36254;BME280;22291;52.250;21.228;2023-03-13T06:01:09;99579.99;;;1.30;83.60
36254;BME280;22291;52.250;21.228;2023-03-13T06:03:38;99580.54;;;1.35;83.15
36254;BME280;22291;52.250;21.228;2023-03-13T06:06:05;99573.08;;;1.37;83.54
36254;BME280;22291;52.250;21.228;2023-03-13T06:08:32;99570.92;;;1.41;83.53
36254;BME280;22291;52.250;21.228;2023-03-13T06:11:00;99567.22;;;1.45;83.72
36254;BME280;22291;52.250;21.228;2023-03-13T06:13:27;99566.95;;;1.46;83.86
36254;BME280;22291;52.250;21.228;2023-03-13T06:15:56;99568.80;;;1.51;83.85
36254;BME280;22291;52.250;21.228;2023-03-13T06:18:24;99562.96;;;1.52;84.31
36254;BME280;22291;52.250;21.228;2023-03-13T06:20:59;99570.40;;;1.55;84.31
36254;BME280;22291;52.250;21.228;2023-03-13T06:23:27;99569.88;;;1.58;84.34
36254;BME280;22291;52.250;21.228;2023-03-13T06:25:53;99575.22;;;1.60;84.54
36254;BME280;22291;52.250;21.228;2023-03-13T06:28:20;99570.95;;;1.62;84.60
36254;BME280;22291;52.250;21.228;2023-03-13T06:30:47;99571.48;;;1.64;85.64
36254;BME280;22291;52.250;21.228;2023-03-13T06:33:13;99557.89;;;1.65;85.70
36254;BME280;22291;52.250;21.228;2023-03-13T06:35:40;99554.96;;;1.67;85.89
36254;BME280;22291;52.250;21.228;2023-03-13T06:38:09;99557.88;;;1.68;86.54
36254;BME280;22291;52.250;21.228;2023-03-13T06:40:36;99557.89;;;1.71;86.80
36254;BME280;22291;52.250;21.228;2023-03-13T06:43:03;99560.53;;;1.73;86.57
36254;BME280;22291;52.250;21.228;2023-03-13T06:45:30;99563.48;;;1.74;86.90
36254;BME280;22291;52.250;21.228;2023-03-13T06:47:56;99568.28;;;1.77;87.27
36254;BME280;22291;52.250;21.228;2023-03-13T06:50:22;99568.81;;;1.79;87.52
36254;BME280;22291;52.250;21.228;2023-03-13T06:52:48;99558.39;;;1.80;88.00
36254;BME280;22291;52.250;21.228;2023-03-13T06:55:16;99562.41;;;1.83;87.53
36254;BME280;22291;52.250;21.228;2023-03-13T06:57:48;99554.66;;;1.86;87.72
36254;BME280;22291;52.250;21.228;2023-03-13T07:00:20;99552.80;;;1.90;87.96
36254;BME280;22291;52.250;21.228;2023-03-13T07:02:46;99554.11;;;1.92;88.38
36254;BME280;22291;52.250;21.228;2023-03-13T07:05:13;99556.52;;;1.94;88.51
36254;BME280;22291;52.250;21.228;2023-03-13T07:07:41;99550.66;;;1.94;89.19
36254;BME280;22291;52.250;21.228;2023-03-13T07:10:10;99552.24;;;1.95;89.04
36254;BME280;22291;52.250;21.228;2023-03-13T07:12:37;99538.38;;;1.98;88.85
36254;BME280;22291;52.250;21.228;2023-03-13T07:15:05;99547.42;;;2.02;89.52
36254;BME280;22291;52.250;21.228;2023-03-13T07:17:32;99539.42;;;2.05;88.99
36254;BME280;22291;52.250;21.228;2023-03-13T07:19:58;99540.47;;;2.09;88.96
36254;BME280;22291;52.250;21.228;2023-03-13T07:22:25;99545.27;;;2.12;89.62
36254;BME280;22291;52.250;21.228;2023-03-13T07:24:51;99544.73;;;2.15;89.34
36254;BME280;22291;52.250;21.228;2023-03-13T07:27:18;99547.38;;;2.18;89.68
36254;BME280;22291;52.250;21.228;2023-03-13T07:29:46;99544.18;;;2.21;89.79
36254;BME280;22291;52.250;21.228;2023-03-13T07:32:12;99539.91;;;2.22;89.79
36254;BME280;22291;52.250;21.228;2023-03-13T07:34:39;99545.50;;;2.26;90.10
36254;BME280;22291;52.250;21.228;2023-03-13T07:37:11;99538.56;;;2.30;90.33
36254;BME280;22291;52.250;21.228;2023-03-13T07:39:39;99542.81;;;2.31;90.59
36254;BME280;22291;52.250;21.228;2023-03-13T07:42:09;99538.00;;;2.33;91.38
36254;BME280;22291;52.250;21.228;2023-03-13T07:44:36;99537.20;;;2.33;90.74
36254;BME280;22291;52.250;21.228;2023-03-13T07:47:06;99530.78;;;2.36;90.70
36254;BME280;22291;52.250;21.228;2023-03-13T07:49:32;99530.24;;;2.39;90.69
36254;BME280;22291;52.250;21.228;2023-03-13T07:52:04;99521.15;;;2.43;90.84
36254;BME280;22291;52.250;21.228;2023-03-13T07:54:31;99524.34;;;2.48;90.78
36254;BME280;22291;52.250;21.228;2023-03-13T07:56:57;99522.44;;;2.53;90.91
36254;BME280;22291;52.250;21.228;2023-03-13T07:59:23;99516.55;;;2.56;91.17
36254;BME280;22291;52.250;21.228;2023-03-13T08:01:53;99506.64;;;2.62;90.89
36254;BME280;22291;52.250;21.228;2023-03-13T08:04:19;99505.55;;;2.68;91.06
36254;BME280;22291;52.250;21.228;2023-03-13T08:06:47;99501.52;;;2.73;90.94
36254;BME280;22291;52.250;21.228;2023-03-13T08:09:15;99492.41;;;2.79;90.95
36254;BME280;22291;52.250;21.228;2023-03-13T08:11:42;99505.67;;;2.92;91.05
36254;BME280;22291;52.250;21.228;2023-03-13T08:14:13;99493.06;;;3.01;91.02
36254;BME280;22291;52.250;21.228;2023-03-13T08:16:42;99497.27;;;3.12;91.54
36254;BME280;22291;52.250;21.228;2023-03-13T08:19:09;99501.20;;;3.22;91.13
36254;BME280;22291;52.250;21.228;2023-03-13T08:21:37;99497.07;;;3.38;91.04
36254;BME280;22291;52.250;21.228;2023-03-13T08:24:09;99484.13;;;3.50;90.99
36254;BME280;22291;52.250;21.228;2023-03-13T08:26:40;99490.71;;;3.60;90.47
36254;BME280;22291;52.250;21.228;2023-03-13T08:29:10;99494.36;;;3.69;90.08
36254;BME280;22291;52.250;21.228;2023-03-13T08:31:45;99493.23;;;3.76;89.72
36254;BME280;22291;52.250;21.228;2023-03-13T08:34:16;99495.86;;;3.81;89.52
36254;BME280;22291;52.250;21.228;2023-03-13T08:36:47;99489.63;;;3.88;89.41
36254;BME280;22291;52.250;21.228;2023-03-13T08:39:18;99489.80;;;3.97;89.34
36254;BME280;22291;52.250;21.228;2023-03-13T08:41:48;99499.66;;;4.01;89.11
36254;BME280;22291;52.250;21.228;2023-03-13T08:44:18;99488.39;;;4.04;88.88
36254;BME280;22291;52.250;21.228;2023-03-13T08:46:47;99491.02;;;4.09;88.76
36254;BME280;22291;52.250;21.228;2023-03-13T08:49:17;99491.50;;;4.14;88.55
36254;BME280;22291;52.250;21.228;2023-03-13T08:51:45;99493.61;;;4.17;88.45
36254;BME280;22291;52.250;21.228;2023-03-13T08:54:11;99479.91;;;4.21;88.35
36254;BME280;22291;52.250;21.228;2023-03-13T08:56:37;99472.36;;;4.26;88.42
36254;BME280;22291;52.250;21.228;2023-03-13T08:59:06;99473.92;;;4.29;88.24
36254;BME280;22291;52.250;21.228;2023-03-13T09:01:35;99464.50;;;4.32;88.31
36254;BME280;22291;52.250;21.228;2023-03-13T09:04:04;99460.70;;;4.36;88.14
36254;BME280;22291;52.250;21.228;2023-03-13T09:06:33;99452.37;;;4.40;88.07
36254;BME280;22291;52.250;21.228;2023-03-13T09:09:04;99446.94;;;4.45;88.04
36254;BME280;22291;52.250;21.228;2023-03-13T09:11:36;99440.94;;;4.53;88.01
36254;BME280;22291;52.250;21.228;2023-03-13T09:14:05;99439.95;;;4.65;88.45
36254;BME280;22291;52.250;21.228;2023-03-13T09:16:33;99429.52;;;4.83;88.37
36254;BME280;22291;52.250;21.228;2023-03-13T09:19:01;99434.34;;;5.00;87.88
36254;BME280;22291;52.250;21.228;2023-03-13T09:21:33;99426.31;;;5.16;87.81
36254;BME280;22291;52.250;21.228;2023-03-13T09:24:02;99425.77;;;5.33;87.37
36254;BME280;22291;52.250;21.228;2023-03-13T09:26:31;99411.92;;;5.56;87.74
36254;BME280;22291;52.250;21.228;2023-03-13T09:28:57;99410.65;;;5.82;87.16
36254;BME280;22291;52.250;21.228;2023-03-13T09:31:26;99401.43;;;6.02;86.74
36254;BME280;22291;52.250;21.228;2023-03-13T09:33:55;99393.73;;;6.23;86.69
36254;BME280;22291;52.250;21.228;2023-03-13T09:36:27;99397.31;;;6.43;85.58
36254;BME280;22291;52.250;21.228;2023-03-13T09:38:58;99387.20;;;6.51;85.09
36254;BME280;22291;52.250;21.228;2023-03-13T09:41:39;99384.84;;;6.72;85.42
36254;BME280;22291;52.250;21.228;2023-03-13T09:44:31;99385.02;;;6.99;85.08
36254;BME280;22291;52.250;21.228;2023-03-13T09:47:07;99386.73;;;7.37;85.58
36254;BME280;22291;52.250;21.228;2023-03-13T09:49:56;99379.86;;;7.62;84.60
36254;BME280;22291;52.250;21.228;2023-03-13T09:57:49;99362.08;;;8.10;82.61
36254;BME280;22291;52.250;21.228;2023-03-13T10:00:29;99362.19;;;8.34;82.39
36254;BME280;22291;52.250;21.228;2023-03-13T10:06:03;99358.09;;;8.63;79.72
36254;BME280;22291;52.250;21.228;2023-03-13T10:08:35;99345.00;;;8.76;79.83
36254;BME280;22291;52.250;21.228;2023-03-13T10:11:11;99336.74;;;8.81;79.71
36254;BME280;22291;52.250;21.228;2023-03-13T10:14:11;99356.56;;;8.94;78.95
36254;BME280;22291;52.250;21.228;2023-03-13T10:19:34;99335.53;;;9.17;78.03
36254;BME280;22291;52.250;21.228;2023-03-13T10:22:10;99327.55;;;9.29;78.61
36254;BME280;22291;52.250;21.228;2023-03-13T10:24:49;99340.79;;;9.37;77.53
36254;BME280;22291;52.250;21.228;2023-03-13T10:27:17;99332.51;;;9.42;76.82
36254;BME280;22291;52.250;21.228;2023-03-13T10:29:45;99332.41;;;9.45;76.25
36254;BME280;22291;52.250;21.228;2023-03-13T10:32:14;99330.84;;;9.44;76.88
36254;BME280;22291;52.250;21.228;2023-03-13T10:34:59;99336.95;;;9.47;76.41
36254;BME280;22291;52.250;21.228;2023-03-13T10:37:30;99330.66;;;9.49;76.87
36254;BME280;22291;52.250;21.228;2023-03-13T10:40:19;99331.83;;;9.54;76.48
36254;BME280;22291;52.250;21.228;2023-03-13T10:42:52;99326.64;;;9.55;75.58
36254;BME280;22291;52.250;21.228;2023-03-13T10:45:22;99317.11;;;9.58;76.81
36254;BME280;22291;52.250;21.228;2023-03-13T10:48:01;99320.38;;;9.57;76.98
36254;BME280;22291;52.250;21.228;2023-03-13T10:50:35;99322.59;;;9.55;77.04
36254;BME280;22291;52.250;21.228;2023-03-13T10:53:18;99312.93;;;9.54;77.33
36254;BME280;22291;52.250;21.228;2023-03-13T10:55:51;99308.73;;;9.50;77.28
36254;BME280;22291;52.250;21.228;2023-03-13T10:58:32;99296.91;;;9.49;77.75
36254;BME280;22291;52.250;21.228;2023-03-13T11:03:53;99290.88;;;9.52;77.58
36254;BME280;22291;52.250;21.228;2023-03-13T11:06:34;99293.00;;;9.52;77.72
36254;BME280;22291;52.250;21.228;2023-03-13T11:09:12;99287.09;;;9.59;78.22
36254;BME280;22291;52.250;21.228;2023-03-13T11:11:49;99274.64;;;9.67;78.16
36254;BME280;22291;52.250;21.228;2023-03-13T11:14:24;99267.99;;;9.79;78.06
36254;BME280;22291;52.250;21.228;2023-03-13T11:16:54;99260.94;;;9.87;78.51
36254;BME280;22291;52.250;21.228;2023-03-13T11:19:52;99270.45;;;9.99;78.60
36254;BME280;22291;52.250;21.228;2023-03-13T11:22:24;99251.45;;;10.02;77.30
36254;BME280;22291;52.250;21.228;2023-03-13T11:25:03;99243.47;;;10.05;76.95
36254;BME280;22291;52.250;21.228;2023-03-13T11:36:38;99230.61;;;10.23;75.27
36254;BME280;22291;52.250;21.228;2023-03-13T11:48:46;99199.27;;;10.43;74.31
36254;BME280;22291;52.250;21.228;2023-03-13T12:02:55;99158.55;;;11.98;69.38
36254;BME280;22291;52.250;21.228;2023-03-13T12:05:24;99169.05;;;11.99;68.32
36254;BME280;22291;52.250;21.228;2023-03-13T12:07:59;99152.94;;;11.78;67.51
36254;BME280;22291;52.250;21.228;2023-03-13T12:10:38;99159.08;;;11.69;68.05
36254;BME280;22291;52.250;21.228;2023-03-13T12:13:22;99153.57;;;11.59;67.82
36254;BME280;22291;52.250;21.228;2023-03-13T12:15:57;99160.14;;;11.52;67.98
36254;BME280;22291;52.250;21.228;2023-03-13T12:18:37;99160.63;;;11.35;66.23
36254;BME280;22291;52.250;21.228;2023-03-13T12:26:56;99152.91;;;10.97;68.84
36254;BME280;22291;52.250;21.228;2023-03-13T12:29:30;99149.52;;;10.94;69.23
36254;BME280;22291;52.250;21.228;2023-03-13T12:32:39;99137.45;;;10.97;70.00
36254;BME280;22291;52.250;21.228;2023-03-13T12:35:30;99133.30;;;11.00;68.74
36254;BME280;22291;52.250;21.228;2023-03-13T12:38:15;99124.81;;;11.01;70.28
36254;BME280;22291;52.250;21.228;2023-03-13T12:41:07;99136.10;;;11.03;70.27
36254;BME280;22291;52.250;21.228;2023-03-13T12:43:52;99125.61;;;10.96;69.42
36254;BME280;22291;52.250;21.228;2023-03-13T12:46:35;99129.55;;;10.86;70.50
36254;BME280;22291;52.250;21.228;2023-03-13T12:49:14;99115.47;;;10.74;70.68
36254;BME280;22291;52.250;21.228;2023-03-13T12:52:15;99113.90;;;10.67;71.26
36254;BME280;22291;52.250;21.228;2023-03-13T12:58:16;99110.18;;;10.53;72.43
36254;BME280;22291;52.250;21.228;2023-03-13T13:00:44;99101.27;;;10.46;73.05
36254;BME280;22291;52.250;21.228;2023-03-13T13:06:23;99096.64;;;10.35;73.64
36254;BME280;22291;52.250;21.228;2023-03-13T13:09:02;99096.05;;;10.29;73.73
36254;BME280;22291;52.250;21.228;2023-03-13T13:17:14;99080.61;;;10.17;74.88
36254;BME280;22291;52.250;21.228;2023-03-13T13:19:45;99077.79;;;10.14;75.35
36254;BME280;22291;52.250;21.228;2023-03-13T13:27:47;99073.15;;;10.02;76.62
36254;BME280;22291;52.250;21.228;2023-03-13T13:33:42;99070.64;;;9.90;77.62
36254;BME280;22291;52.250;21.228;2023-03-13T13:36:36;99076.83;;;9.85;78.07
36254;BME280;22291;52.250;21.228;2023-03-13T13:38:27;99078.72;;;9.78;79.18
36254;BME280;22291;52.250;21.228;2023-03-13T13:43:47;99061.55;;;9.62;79.97
36254;BME280;22291;52.250;21.228;2023-03-13T13:46:35;99065.27;;;9.57;80.84
36254;BME280;22291;52.250;21.228;2023-03-13T13:49:17;99055.22;;;9.51;81.27
36254;BME280;22291;52.250;21.228;2023-03-13T13:57:15;99043.88;;;9.31;84.49
36254;BME280;22291;52.250;21.228;2023-03-13T14:02:37;99038.68;;;9.20;86.07
36254;BME280;22291;52.250;21.228;2023-03-13T14:05:20;99034.70;;;9.11;86.61
36254;BME280;22291;52.250;21.228;2023-03-13T14:08:02;99046.23;;;9.05;87.01
36254;BME280;22291;52.250;21.228;2023-03-13T14:10:41;99041.36;;;8.98;87.32
36254;BME280;22291;52.250;21.228;2023-03-13T14:13:18;99039.43;;;8.93;90.02
36254;BME280;22291;52.250;21.228;2023-03-13T14:15:44;99035.33;;;8.87;88.15
36254;BME280;22291;52.250;21.228;2023-03-13T14:18:23;99025.77;;;8.83;88.75
36254;BME280;22291;52.250;21.228;2023-03-13T14:20:56;99008.44;;;8.78;89.30
36254;BME280;22291;52.250;21.228;2023-03-13T14:23:34;99001.00;;;8.75;89.83
36254;BME280;22291;52.250;21.228;2023-03-13T14:26:16;98998.17;;;8.71;90.28
36254;BME280;22291;52.250;21.228;2023-03-13T14:28:48;99003.43;;;8.68;90.69
36254;BME280;22291;52.250;21.228;2023-03-13T14:31:22;99005.34;;;8.67;91.88
36254;BME280;22291;52.250;21.228;2023-03-13T14:33:52;98999.50;;;8.65;92.16
36254;BME280;22291;52.250;21.228;2023-03-13T14:36:20;98992.44;;;8.67;93.24
36254;BME280;22291;52.250;21.228;2023-03-13T14:38:57;98982.19;;;8.66;92.65
36254;BME280;22291;52.250;21.228;2023-03-13T14:44:10;98984.19;;;8.63;93.50
36254;BME280;22291;52.250;21.228;2023-03-13T14:46:38;98975.44;;;8.60;93.25
36254;BME280;22291;52.250;21.228;2023-03-13T14:49:17;98977.88;;;8.59;93.44
36254;BME280;22291;52.250;21.228;2023-03-13T14:51:48;98976.08;;;8.57;94.62